Time;durP1;ratioP1;P1;durP2;ratioP2;P2;SDS_P1;SDS_P2;PMS_P1;PMS_P2;Temp;Humidity;BMP_temperature;BMP_pressure;BME280_temperature;BME280_humidity;BME280_pressure;Samples;Min_cycle;Max_cycle;Signal;HPM_P1;HPM_P2
2021/09/24 00:02:45;;;;;;;11.60;3.67;;;15.30;32.40;;;;;;4421255;28;657605;-69
2021/09/24 00:05:33;;;;;;;7.43;4.40;;;15.30;32.50;;;;;;4404587;28;657153;-68
2021/09/24 00:08:22;;;;;;;6.93;4.20;;;15.30;27.20;;;;;;4424775;28;657353;-68
2021/09/24 00:11:09;;;;;;;6.50;3.80;;;15.30;18.40;;;;;;4407162;28;657770;-67
2021/09/24 00:13:57;;;;;;;13.73;4.13;;;15.30;39.90;;;;;;4410163;28;657202;-68
2021/09/24 00:16:44;;;;;;;7.70;4.53;;;15.30;30.30;;;;;;4389134;28;658827;-69
2021/09/24 00:19:32;;;;;;;11.90;4.60;;;15.30;55.60;;;;;;4411486;28;657465;-69
2021/09/24 00:22:19;;;;;;;8.20;4.07;;;15.20;80.50;;;;;;4393771;28;657969;-69
2021/09/24 00:25:09;;;;;;;11.70;4.20;;;15.20;99.90;;;;;;4414156;28;657789;-68
2021/09/24 00:27:58;;;;;;;10.03;3.77;;;15.10;99.90;;;;;;4392220;28;657887;-69
2021/09/24 00:30:46;;;;;;;7.53;4.13;;;15.00;99.90;;;;;;4402436;28;658189;-69
2021/09/24 00:33:33;;;;;;;8.60;4.57;;;14.90;99.90;;;;;;4410425;28;656871;-70
2021/09/24 00:36:21;;;;;;;7.13;4.57;;;14.80;1.00;;;;;;4434204;28;657498;-69
2021/09/24 00:39:08;;;;;;;9.23;4.50;;;14.70;1.00;;;;;;4412267;28;655233;-69
2021/09/24 00:41:57;;;;;;;13.93;4.87;;;14.70;1.00;;;;;;4430445;28;655954;-69
2021/09/24 00:44:47;;;;;;;9.23;4.07;;;14.70;1.00;;;;;;4402725;28;657790;-69
2021/09/24 00:47:34;;;;;;;8.23;4.07;;;14.70;1.00;;;;;;4411681;28;657331;-69
2021/09/24 00:50:22;;;;;;;8.43;4.37;;;14.70;1.00;;;;;;4434065;28;655299;-68
2021/09/24 00:53:10;;;;;;;10.10;4.33;;;14.80;1.00;;;;;;4412208;28;657290;-68
2021/09/24 00:55:58;;;;;;;7.20;3.93;;;14.80;1.00;;;;;;4412613;28;657315;-69
2021/09/24 00:58:47;;;;;;;8.57;4.20;;;14.80;99.90;;;;;;4439195;28;656432;-69
2021/09/24 01:01:34;;;;;;;5.67;3.53;;;14.80;99.90;;;;;;4414694;28;656796;-69
2021/09/24 01:04:22;;;;;;;10.63;4.82;;;14.90;99.90;;;;;;4433260;28;657171;-69
2021/09/24 01:07:11;;;;;;;7.20;4.30;;;14.80;99.90;;;;;;4409363;28;658947;-69
2021/09/24 01:09:58;;;;;;;13.67;4.23;;;14.90;99.90;;;;;;4411164;28;656389;-69
2021/09/24 01:12:46;;;;;;;8.37;4.37;;;14.90;99.90;;;;;;4423113;28;658179;-68
2021/09/24 01:15:35;;;;;;;7.60;4.10;;;14.90;99.90;;;;;;4407476;28;656357;-69
2021/09/24 01:18:25;;;;;;;9.50;4.07;;;14.90;99.90;;;;;;4429626;28;656751;-69
2021/09/24 01:21:14;;;;;;;6.30;3.63;;;14.90;99.90;;;;;;4407286;28;657150;-69
2021/09/24 01:24:02;;;;;;;6.63;3.67;;;14.90;99.90;;;;;;4421570;28;657016;-68
2021/09/24 01:26:49;;;;;;;9.47;3.93;;;14.80;99.90;;;;;;4408574;28;657109;-69
2021/09/24 01:29:37;;;;;;;8.40;3.70;;;14.90;99.90;;;;;;4418411;28;656271;-69
2021/09/24 01:32:25;;;;;;;6.17;3.17;;;14.90;99.90;;;;;;4397035;28;658096;-69
2021/09/24 01:35:13;;;;;;;11.23;4.57;;;14.80;99.90;;;;;;4419478;28;657071;-69
2021/09/24 01:38:02;;;;;;;7.93;4.07;;;14.80;99.90;;;;;;4420472;28;658934;-69
2021/09/24 01:40:49;;;;;;;7.77;4.30;;;14.80;99.90;;;;;;4397875;28;656577;-69
2021/09/24 01:43:37;;;;;;;5.50;3.40;;;14.80;99.90;;;;;;4413061;28;656302;-69
2021/09/24 01:46:25;;;;;;;8.60;4.00;;;14.80;99.90;;;;;;4407136;28;657050;-69
2021/09/24 01:49:13;;;;;;;7.10;3.77;;;14.80;99.90;;;;;;4427982;28;656513;-69
2021/09/24 01:52:00;;;;;;;7.33;3.30;;;14.80;99.90;;;;;;4427484;28;656121;-68
2021/09/24 01:54:49;;;;;;;10.37;3.73;;;14.80;99.90;;;;;;4393551;28;656589;-69
2021/09/24 01:57:37;;;;;;;10.23;3.87;;;14.90;99.90;;;;;;4414443;28;658150;-69
2021/09/24 02:00:24;;;;;;;6.27;4.10;;;14.80;99.90;;;;;;4395316;28;659168;-69
2021/09/24 02:03:12;;;;;;;8.03;3.97;;;14.80;1.00;;;;;;4431465;28;656297;-69
2021/09/24 02:06:00;;;;;;;8.67;3.80;;;14.70;1.00;;;;;;4407127;28;656753;-69
2021/09/24 02:08:47;;;;;;;7.90;4.13;;;14.60;1.00;;;;;;4428185;28;655796;-69
2021/09/24 02:11:36;;;;;;;7.23;3.97;;;14.60;1.00;;;;;;4401788;28;657690;-68
2021/09/24 02:14:23;;;;;;;6.93;4.60;;;14.50;1.00;;;;;;4400312;28;655247;-69
2021/09/24 02:17:11;;;;;;;8.00;4.40;;;14.50;1.00;;;;;;4430298;28;655492;-68
2021/09/24 02:19:58;;;;;;;10.77;3.93;;;14.40;1.00;;;;;;4408181;28;655182;-68
2021/09/24 02:22:46;;;;;;;8.57;3.20;;;14.30;1.00;;;;;;4422972;28;656912;-69
2021/09/24 02:25:33;;;;;;;4.43;2.80;;;14.20;1.00;;;;;;4399302;28;655689;-69
2021/09/24 02:28:24;;;;;;;7.27;2.80;;;14.10;1.00;;;;;;4429404;28;655425;-69
2021/09/24 02:31:12;;;;;;;6.63;2.03;;;14.10;1.00;;;;;;4431235;28;655890;-69
2021/09/24 02:34:00;;;;;;;1.97;1.33;;;14.00;1.00;;;;;;4401369;28;656422;-68
2021/09/24 02:36:47;;;;;;;1.77;1.33;;;13.90;1.00;;;;;;4412562;28;655637;-68
2021/09/24 02:39:35;;;;;;;3.07;1.30;;;13.90;1.00;;;;;;4409505;28;656873;-68
2021/09/24 02:42:22;;;;;;;3.10;1.30;;;13.80;1.00;;;;;;4428773;28;655253;-68
2021/09/24 02:45:11;;;;;;;3.70;1.27;;;13.80;1.00;;;;;;4395610;28;656938;-68
2021/09/24 02:47:59;;;;;;;6.83;1.30;;;13.80;1.00;;;;;;4397461;28;655317;-68
2021/09/24 02:50:46;;;;;;;1.83;1.13;;;13.70;1.00;;;;;;4425866;28;656198;-68
2021/09/24 02:53:34;;;;;;;4.73;0.90;;;13.60;1.00;;;;;;4408951;28;656032;-69
2021/09/24 02:56:21;;;;;;;4.10;1.40;;;13.40;1.00;;;;;;4433075;28;655534;-68
2021/09/24 02:59:09;;;;;;;4.70;1.30;;;13.20;3.70;;;;;;4409254;28;655617;-69
2021/09/24 03:01:58;;;;;;;5.30;1.37;;;13.10;25.70;;;;;;4427645;28;655437;-69
2021/09/24 03:04:45;;;;;;;3.53;1.23;;;13.00;39.40;;;;;;4403446;28;656927;-68
2021/09/24 03:07:33;;;;;;;3.53;1.20;;;12.90;57.60;;;;;;4397708;28;656624;-69
2021/09/24 03:10:20;;;;;;;5.77;1.47;;;12.70;90.70;;;;;;4428393;28;658192;-68
2021/09/24 03:13:08;;;;;;;3.00;1.40;;;12.60;98.80;;;;;;4402690;28;656564;-68
2021/09/24 03:15:55;;;;;;;4.97;1.40;;;12.60;95.00;;;;;;4422343;28;658350;-69
2021/09/24 03:18:44;;;;;;;3.30;1.47;;;12.50;93.90;;;;;;4405559;28;656901;-68
2021/09/24 03:21:32;;;;;;;7.20;1.57;;;12.50;88.80;;;;;;4422940;28;657073;-68
2021/09/24 03:24:19;;;;;;;4.60;1.60;;;12.50;92.50;;;;;;4397919;28;657394;-68
2021/09/24 03:27:07;;;;;;;5.77;1.50;;;12.50;94.30;;;;;;4423513;28;656859;-68
2021/09/24 03:29:54;;;;;;;3.27;1.27;;;12.40;94.40;;;;;;4401695;28;657807;-68
2021/09/24 03:32:42;;;;;;;5.23;1.73;;;12.40;96.80;;;;;;4409315;28;656643;-69
2021/09/24 03:35:31;;;;;;;6.33;1.90;;;12.40;73.10;;;;;;4394034;28;657635;-68
2021/09/24 03:38:18;;;;;;;4.40;1.90;;;12.40;62.70;;;;;;4398540;28;656589;-68
2021/09/24 03:41:06;;;;;;;5.07;2.00;;;12.40;39.70;;;;;;4416699;28;657175;-68
2021/09/24 03:43:53;;;;;;;3.17;1.70;;;12.40;21.20;;;;;;4400750;28;656538;-67
2021/09/24 03:46:40;;;;;;;4.20;1.90;;;12.30;10.60;;;;;;4420846;28;657744;-68
2021/09/24 03:49:28;;;;;;;5.03;2.07;;;12.30;7.00;;;;;;4396879;28;656597;-67
2021/09/24 03:52:17;;;;;;;5.87;2.47;;;12.30;1.00;;;;;;4416429;28;656543;-67
2021/09/24 03:55:05;;;;;;;9.97;2.70;;;12.20;1.00;;;;;;4400423;28;655877;-68
2021/09/24 03:57:53;;;;;;;7.17;2.47;;;12.20;1.00;;;;;;4392994;28;655395;-68
2021/09/24 04:00:40;;;;;;;10.20;2.53;;;12.10;1.00;;;;;;4418322;28;655876;-68
2021/09/24 04:03:29;;;;;;;10.30;3.07;;;12.10;1.00;;;;;;4402921;28;656655;-68
2021/09/24 04:06:16;;;;;;;6.53;2.60;;;12.10;1.00;;;;;;4414677;28;657045;-68
2021/09/24 04:09:05;;;;;;;6.70;2.38;;;12.10;1.00;;;;;;4394159;28;655734;-67
2021/09/24 04:11:53;;;;;;;11.03;2.90;;;12.10;1.00;;;;;;4395640;28;655459;-68
2021/09/24 04:14:40;;;;;;;6.43;2.47;;;12.00;1.00;;;;;;4423443;28;656679;-68
2021/09/24 04:17:28;;;;;;;11.57;2.58;;;12.10;1.00;;;;;;4403580;28;655824;-68
2021/09/24 04:20:15;;;;;;;5.63;2.40;;;12.10;1.00;;;;;;4419475;28;657891;-68
2021/09/24 04:23:03;;;;;;;6.77;2.20;;;12.00;1.00;;;;;;4397222;28;655539;-68
2021/09/24 04:25:52;;;;;;;11.23;2.65;;;12.00;1.00;;;;;;4420156;28;655605;-67
2021/09/24 04:28:40;;;;;;;8.67;2.40;;;12.00;1.00;;;;;;4394646;28;658086;-68
2021/09/24 04:31:28;;;;;;;14.57;2.40;;;12.00;1.00;;;;;;4400146;28;655624;-68
2021/09/24 04:34:16;;;;;;;7.80;2.37;;;12.00;1.00;;;;;;4417032;28;656892;-67
2021/09/24 04:37:40;;;;;;;10.10;2.13;;;12.00;1.00;;;;;;4405233;28;655537;-67
2021/09/24 04:40:28;;;;;;;5.67;1.93;;;12.00;1.00;;;;;;4392880;28;656911;-68
2021/09/24 04:43:17;;;;;;;8.00;1.87;;;12.00;1.00;;;;;;4436273;28;655989;-67
2021/09/24 04:46:04;;;;;;;5.10;2.10;;;12.10;1.00;;;;;;4416560;28;655894;-68
2021/09/24 04:48:52;;;;;;;5.20;2.17;;;12.00;1.00;;;;;;4430362;28;655845;-68
2021/09/24 04:51:39;;;;;;;6.77;2.23;;;12.00;1.00;;;;;;4410307;28;655516;-68
2021/09/24 04:54:27;;;;;;;5.30;2.70;;;12.00;1.00;;;;;;4434351;28;655951;-67
2021/09/24 04:57:14;;;;;;;8.63;2.23;;;12.00;1.00;;;;;;4410983;28;657008;-67
2021/09/24 05:00:04;;;;;;;8.67;2.53;;;12.10;1.00;;;;;;4435132;28;656057;-67
2021/09/24 05:02:51;;;;;;;7.03;1.93;;;12.10;1.00;;;;;;4412613;28;656291;-67
2021/09/24 05:08:50;;;;;;;13.50;2.53;;;12.10;1.00;;;;;;4392513;28;657099;-68
2021/09/24 05:11:38;;;;;;;4.90;2.07;;;12.10;1.00;;;;;;4402231;28;656595;-68
2021/09/24 05:14:25;;;;;;;6.10;2.10;;;12.10;1.00;;;;;;4418010;28;657388;-68
2021/09/24 05:17:14;;;;;;;6.67;1.90;;;12.00;1.00;;;;;;4397128;28;655257;-68
2021/09/24 05:20:02;;;;;;;6.63;1.70;;;12.10;1.00;;;;;;4421133;28;655338;-68
2021/09/24 05:22:49;;;;;;;15.07;2.20;;;12.10;1.00;;;;;;4396182;28;656962;-68
2021/09/24 05:25:37;;;;;;;6.00;2.00;;;12.10;1.00;;;;;;4420839;28;657255;-68
2021/09/24 05:28:24;;;;;;;6.37;1.97;;;12.10;1.00;;;;;;4400469;28;655868;-69
2021/09/24 05:31:12;;;;;;;12.27;2.10;;;12.10;1.00;;;;;;4417868;28;655953;-68
2021/09/24 05:34:02;;;;;;;8.43;2.07;;;12.20;1.00;;;;;;4391011;28;658015;-67
2021/09/24 05:36:50;;;;;;;9.07;1.77;;;12.20;1.00;;;;;;4395164;28;656203;-68
2021/09/24 05:39:38;;;;;;;5.73;1.80;;;12.10;1.00;;;;;;4404342;28;656080;-68
2021/09/24 05:42:25;;;;;;;9.27;2.07;;;12.20;1.00;;;;;;4428478;28;656096;-68
2021/09/24 05:45:14;;;;;;;8.37;2.20;;;12.10;1.00;;;;;;4400576;28;655682;-68
2021/09/24 05:48:01;;;;;;;7.80;2.10;;;12.00;1.00;;;;;;4413920;28;655942;-69
2021/09/24 05:50:50;;;;;;;8.40;1.57;;;11.90;1.00;;;;;;4411099;28;655577;-68
2021/09/24 05:53:38;;;;;;;17.77;2.60;;;11.80;1.00;;;;;;4400512;28;655933;-68
2021/09/24 05:56:26;;;;;;;10.87;2.20;;;11.80;1.00;;;;;;4426401;28;657402;-68
2021/09/24 05:59:13;;;;;;;10.87;1.90;;;11.70;1.00;;;;;;4408490;28;656541;-68
2021/09/24 06:02:01;;;;;;;12.43;2.10;;;11.70;1.00;;;;;;4413374;28;657507;-68
2021/09/24 06:04:48;;;;;;;13.43;2.00;;;11.70;1.00;;;;;;4392965;28;656582;-68
2021/09/24 06:07:37;;;;;;;8.23;1.90;;;11.70;1.00;;;;;;4413252;28;657248;-68
2021/09/24 06:10:25;;;;;;;9.23;1.98;;;11.60;1.00;;;;;;4405754;28;656311;-67
2021/09/24 06:13:13;;;;;;;12.23;2.50;;;11.60;1.00;;;;;;4413459;28;655475;-69
2021/09/24 06:16:00;;;;;;;13.87;1.87;;;11.60;1.00;;;;;;4421380;28;656943;-67
2021/09/24 06:18:48;;;;;;;14.80;2.00;;;11.60;1.00;;;;;;4399831;28;656956;-69
2021/09/24 06:21:36;;;;;;;9.23;2.07;;;11.60;1.00;;;;;;4426621;28;657602;-68
2021/09/24 06:24:25;;;;;;;9.53;2.27;;;11.60;1.00;;;;;;4410919;28;655739;-68
2021/09/24 06:27:15;;;;;;;7.93;1.50;;;11.60;1.00;;;;;;4409692;28;655570;-68
2021/09/24 06:30:03;;;;;;;12.93;1.97;;;11.60;1.00;;;;;;4402316;28;655253;-69
2021/09/24 06:32:51;;;;;;;10.40;2.10;;;11.60;1.00;;;;;;4416842;28;657591;-67
2021/09/24 06:35:38;;;;;;;8.90;2.13;;;11.60;1.00;;;;;;4405896;28;656628;-69
2021/09/24 06:38:26;;;;;;;11.53;2.10;;;11.70;1.00;;;;;;4425114;28;656750;-68
2021/09/24 06:41:15;;;;;;;11.10;2.30;;;11.70;1.00;;;;;;4411220;28;656933;-69
2021/09/24 06:44:03;;;;;;;13.13;2.23;;;11.70;1.00;;;;;;4406274;28;656361;-69
2021/09/24 06:46:50;;;;;;;12.37;2.40;;;11.80;1.00;;;;;;4422947;28;656839;-67
2021/09/24 06:49:38;;;;;;;9.80;2.33;;;11.90;1.00;;;;;;4404737;28;657926;-69
2021/09/24 06:52:26;;;;;;;16.43;2.20;;;11.90;1.00;;;;;;4429633;28;656193;-68
2021/09/24 06:55:13;;;;;;;9.27;2.07;;;12.00;1.00;;;;;;4408721;28;656618;-68
2021/09/24 06:58:02;;;;;;;12.13;2.53;;;12.00;1.00;;;;;;4424051;28;656600;-68
2021/09/24 07:00:50;;;;;;;12.70;2.37;;;12.10;1.00;;;;;;4404614;28;657915;-67
2021/09/24 07:03:38;;;;;;;16.17;2.43;;;12.10;1.00;;;;;;4417304;28;657233;-70
2021/09/24 07:06:25;;;;;;;10.37;2.20;;;12.20;1.00;;;;;;4425959;28;658370;-68
2021/09/24 07:09:13;;;;;;;17.73;2.77;;;12.20;1.00;;;;;;4407967;28;656877;-69
2021/09/24 07:12:00;;;;;;;8.37;1.70;;;12.10;1.00;;;;;;4429874;28;658037;-67
2021/09/24 07:14:49;;;;;;;17.00;2.70;;;12.20;1.00;;;;;;4401238;28;655365;-69
2021/09/24 07:17:37;;;;;;;12.50;2.47;;;12.20;1.00;;;;;;4429037;28;656691;-68
2021/09/24 07:20:25;;;;;;;13.20;2.57;;;12.20;1.00;;;;;;4409094;28;657401;-68
2021/09/24 07:23:12;;;;;;;17.77;2.80;;;12.10;1.00;;;;;;4422980;28;656695;-67
2021/09/24 07:26:01;;;;;;;13.13;2.47;;;12.10;1.00;;;;;;4408895;28;657990;-67
2021/09/24 07:28:48;;;;;;;17.87;3.47;;;12.10;1.00;;;;;;4395387;28;657476;-68
2021/09/24 07:31:37;;;;;;;12.67;3.00;;;12.10;1.00;;;;;;4415009;28;657352;-67
2021/09/24 07:34:25;;;;;;;16.07;3.10;;;12.10;1.00;;;;;;4391174;28;657447;-68
2021/09/24 07:37:13;;;;;;;18.77;3.10;;;12.10;1.00;;;;;;4426091;28;656890;-68
2021/09/24 07:40:00;;;;;;;9.50;2.37;;;12.10;1.00;;;;;;4429935;28;657614;-68
2021/09/24 07:42:48;;;;;;;16.63;3.03;;;12.10;1.00;;;;;;4412033;28;656849;-68
2021/09/24 07:45:36;;;;;;;16.73;3.20;;;12.00;1.00;;;;;;4434523;28;656892;-67
2021/09/24 07:48:25;;;;;;;11.27;3.00;;;12.00;1.00;;;;;;4395916;28;657944;-67
2021/09/24 07:51:13;;;;;;;11.63;2.80;;;11.90;1.00;;;;;;4418295;28;656775;-67
2021/09/24 07:54:01;;;;;;;10.30;3.10;;;11.90;1.00;;;;;;4427267;28;656870;-67
2021/09/24 07:56:48;;;;;;;16.60;3.30;;;11.90;1.00;;;;;;4399610;28;656404;-68
2021/09/24 07:59:36;;;;;;;8.37;2.73;;;11.90;1.00;;;;;;4426093;28;657463;-68
2021/09/24 08:02:23;;;;;;;22.57;3.47;;;11.90;1.00;;;;;;4407436;28;655312;-68
2021/09/24 08:05:12;;;;;;;20.30;3.03;;;12.00;1.00;;;;;;4419095;28;657981;-68
2021/09/24 08:08:00;;;;;;;19.10;2.90;;;12.00;1.00;;;;;;4399380;28;656661;-67
2021/09/24 08:10:48;;;;;;;15.98;3.13;;;12.00;1.00;;;;;;4395705;28;657002;-68
2021/09/24 08:13:36;;;;;;;13.07;3.23;;;12.10;1.00;;;;;;4422394;28;657601;-68
2021/09/24 08:16:23;;;;;;;14.17;3.00;;;12.00;1.00;;;;;;4394387;28;656544;-68
2021/09/24 08:19:11;;;;;;;8.07;2.47;;;12.10;1.00;;;;;;4429807;28;657251;-68
2021/09/24 08:22:00;;;;;;;15.27;2.50;;;12.20;1.00;;;;;;4391455;28;655878;-68
2021/09/24 08:24:47;;;;;;;21.03;3.50;;;12.40;1.00;;;;;;4410536;28;656490;-67
2021/09/24 08:27:35;;;;;;;12.60;2.50;;;12.50;99.90;;;;;;4388417;28;657173;-67
2021/09/24 08:30:25;;;;;;;17.90;2.80;;;12.60;99.90;;;;;;4408786;28;657274;-68
2021/09/24 08:33:14;;;;;;;11.13;2.03;;;12.70;99.90;;;;;;4401026;28;657877;-67
2021/09/24 08:36:02;;;;;;;7.22;2.03;;;12.70;99.90;;;;;;4401315;28;657639;-68
2021/09/24 08:38:51;;;;;;;9.50;2.37;;;12.70;99.90;;;;;;4384241;28;657354;-68
2021/09/24 08:41:38;;;;;;;8.47;2.37;;;12.60;99.90;;;;;;4386122;28;656794;-67
2021/09/24 08:44:26;;;;;;;12.33;2.57;;;12.60;99.90;;;;;;4411973;28;657620;-67
2021/09/24 08:47:13;;;;;;;17.03;2.83;;;12.70;99.90;;;;;;4392319;28;657427;-68
2021/09/24 08:50:01;;;;;;;15.43;2.77;;;12.70;99.90;;;;;;4413931;28;657850;-68
2021/09/24 08:52:49;;;;;;;19.30;2.53;;;12.50;99.90;;;;;;4387421;28;657532;-67
2021/09/24 08:55:38;;;;;;;22.80;3.10;;;12.50;99.90;;;;;;4409775;28;657854;-68
2021/09/24 08:58:26;;;;;;;11.40;2.43;;;12.50;99.90;;;;;;4387586;28;658420;-68
2021/09/24 09:01:13;;;;;;;12.83;2.57;;;12.50;99.90;;;;;;4396227;28;657712;-68
2021/09/24 09:04:01;;;;;;;13.83;3.00;;;12.40;99.90;;;;;;4403632;28;659061;-68
2021/09/24 09:06:48;;;;;;;9.10;2.40;;;12.40;99.90;;;;;;4395385;28;657411;-68
2021/09/24 09:09:37;;;;;;;19.10;2.87;;;12.40;99.90;;;;;;4414345;28;658084;-68
2021/09/24 09:12:28;;;;;;;10.10;2.37;;;12.50;99.90;;;;;;4402397;28;658927;-68
2021/09/24 09:15:16;;;;;;;18.47;3.13;;;12.50;99.90;;;;;;4382099;28;658609;-68
2021/09/24 09:18:03;;;;;;;11.73;3.00;;;12.50;99.90;;;;;;4407902;28;657404;-68
2021/09/24 09:20:51;;;;;;;10.20;2.47;;;12.60;99.90;;;;;;4414173;28;658529;-68
2021/09/24 09:23:40;;;;;;;17.07;3.13;;;12.60;99.90;;;;;;4401260;28;657438;-68
2021/09/24 09:26:28;;;;;;;9.67;3.00;;;12.60;99.90;;;;;;4414321;28;657966;-67
2021/09/24 09:29:17;;;;;;;13.33;3.30;;;12.80;99.90;;;;;;4419899;28;657694;-66
2021/09/24 09:32:11;;;;;;;10.50;3.10;;;12.90;99.90;;;;;;4389143;28;658912;-67
2021/09/24 09:34:59;;;;;;;12.07;3.20;;;13.00;99.90;;;;;;4369568;28;658715;-68
2021/09/24 09:37:47;;;;;;;18.93;3.70;;;13.10;99.90;;;;;;4427993;28;657969;-68
2021/09/24 09:40:35;;;;;;;11.37;3.00;;;13.20;99.90;;;;;;4399641;28;657376;-67
2021/09/24 09:43:26;;;;;;;7.20;2.83;;;13.40;99.90;;;;;;4404660;28;658227;-69
2021/09/24 09:46:16;;;;;;;8.00;2.33;;;13.70;99.90;;;;;;4404556;28;656397;-68
2021/09/24 09:49:06;;;;;;;9.33;2.40;;;13.60;99.90;;;;;;4394486;28;656386;-69
2021/09/24 09:52:07;;;;;;;10.90;2.40;;;13.50;99.90;;;;;;4383924;28;656613;-68
2021/09/24 09:54:56;;;;;;;11.07;2.60;;;13.50;99.90;;;;;;4387904;28;657685;-68
2021/09/24 09:57:43;;;;;;;11.73;2.57;;;13.40;99.90;;;;;;4397762;28;657802;-68
2021/09/24 10:00:32;;;;;;;10.43;2.63;;;13.30;99.90;;;;;;4415130;28;658641;-67
2021/09/24 10:03:31;;;;;;;10.57;2.13;;;13.30;99.90;;;;;;4400741;28;657678;-67
2021/09/24 10:06:23;;;;;;;16.03;2.67;;;13.40;99.90;;;;;;4375440;28;658238;-68
2021/09/24 10:09:12;;;;;;;9.53;2.20;;;13.50;99.90;;;;;;4395912;28;658036;-67
2021/09/24 10:11:59;;;;;;;8.47;2.33;;;13.50;99.90;;;;;;4390191;28;657622;-67
2021/09/24 10:14:48;;;;;;;18.00;2.70;;;13.40;99.90;;;;;;4409468;28;656920;-68
2021/09/24 10:17:36;;;;;;;9.17;2.47;;;13.40;99.90;;;;;;4384581;28;658407;-68
2021/09/24 10:20:25;;;;;;;7.67;1.90;;;13.50;99.90;;;;;;4395435;28;656857;-69
2021/09/24 10:23:13;;;;;;;10.37;2.60;;;13.50;99.90;;;;;;4410297;28;656278;-69
2021/09/24 10:26:04;;;;;;;11.53;2.33;;;13.60;99.90;;;;;;4412368;28;658214;-68
2021/09/24 10:28:51;;;;;;;7.60;2.10;;;13.60;99.90;;;;;;4390402;28;657332;-68
2021/09/24 10:31:40;;;;;;;9.50;2.00;;;13.60;99.90;;;;;;4390159;28;656396;-68
2021/09/24 10:34:29;;;;;;;4.87;2.03;;;13.50;99.90;;;;;;4403311;28;656806;-69
2021/09/24 10:37:19;;;;;;;9.47;2.40;;;13.60;99.90;;;;;;4414050;28;656816;-68
2021/09/24 10:40:26;;;;;;;6.07;2.57;;;13.50;99.90;;;;;;4373699;28;656939;-67
2021/09/24 10:43:14;;;;;;;5.97;2.00;;;13.60;99.90;;;;;;4362194;28;656957;-68
2021/09/24 10:46:02;;;;;;;5.83;2.00;;;13.60;94.80;;;;;;4414025;28;656322;-68
2021/09/24 10:48:49;;;;;;;9.90;2.57;;;13.60;99.90;;;;;;4388436;28;657361;-68
2021/09/24 10:51:38;;;;;;;11.43;2.57;;;13.60;99.90;;;;;;4412437;28;656423;-68
2021/09/24 10:54:27;;;;;;;11.87;2.27;;;13.70;92.80;;;;;;4389799;28;658434;-68
2021/09/24 10:57:14;;;;;;;5.23;1.83;;;13.80;98.10;;;;;;4389506;28;658397;-68
2021/09/24 11:00:23;;;;;;;11.63;2.27;;;13.70;83.90;;;;;;4410277;28;657326;-68
2021/09/24 11:03:11;;;;;;;9.13;2.50;;;13.60;75.30;;;;;;4389315;28;658433;-67
2021/09/24 11:06:01;;;;;;;6.53;2.20;;;13.70;72.20;;;;;;4394496;28;656909;-69
2021/09/24 11:08:48;;;;;;;8.83;2.40;;;13.60;62.00;;;;;;4394256;28;656563;-67
2021/09/24 11:11:39;;;;;;;10.63;2.53;;;13.70;56.90;;;;;;4413638;28;657653;-68
2021/09/24 11:14:32;;;;;;;7.37;1.97;;;13.70;39.70;;;;;;4380340;28;657769;-68
2021/09/24 11:17:42;;;;;;;6.63;2.13;;;13.70;56.30;;;;;;4353517;28;657350;-67
2021/09/24 11:20:31;;;;;;;12.00;2.50;;;13.50;44.70;;;;;;4380013;28;656597;-68
2021/09/24 11:23:35;;;;;;;7.40;2.60;;;13.30;45.00;;;;;;4378987;28;657482;-68
2021/09/24 11:26:25;;;;;;;11.43;2.40;;;13.40;99.90;;;;;;4357923;28;656557;-68
2021/09/24 11:29:15;;;;;;;7.67;2.03;;;13.50;99.90;;;;;;4392136;28;657873;-69
2021/09/24 11:32:11;;;;;;;8.47;2.57;;;13.60;99.90;;;;;;4381642;28;657002;-68
2021/09/24 11:34:58;;;;;;;7.70;2.60;;;13.60;99.90;;;;;;4349302;28;656952;-68
2021/09/24 11:37:47;;;;;;;8.30;2.30;;;13.60;99.90;;;;;;4406975;28;657059;-68
2021/09/24 11:40:36;;;;;;;9.87;2.60;;;13.70;99.90;;;;;;4378440;28;658006;-68
2021/09/24 11:43:25;;;;;;;11.00;2.60;;;13.90;82.00;;;;;;4380973;28;656569;-68
2021/09/24 11:46:18;;;;;;;11.30;2.97;;;14.30;31.80;;;;;;4379609;28;657645;-68
2021/09/24 11:49:06;;;;;;;7.90;2.37;;;14.40;28.10;;;;;;4376349;28;657676;-68
2021/09/24 11:51:57;;;;;;;10.10;2.67;;;14.30;1.00;;;;;;4379636;28;657131;-69
2021/09/24 11:54:45;;;;;;;7.77;2.27;;;14.50;15.10;;;;;;4380527;28;657904;-68
2021/09/24 11:57:33;;;;;;;10.73;2.43;;;14.40;1.00;;;;;;4407931;28;656904;-69
2021/09/24 12:00:20;;;;;;;7.70;2.43;;;14.30;1.00;;;;;;4411105;28;657563;-68
2021/09/24 12:03:11;;;;;;;11.30;2.60;;;14.20;1.00;;;;;;4391523;28;655371;-69
2021/09/24 12:06:01;;;;;;;9.47;2.47;;;14.30;1.00;;;;;;4378481;28;657058;-68
2021/09/24 12:08:50;;;;;;;11.50;2.97;;;14.30;1.00;;;;;;4388168;28;655607;-67
2021/09/24 12:11:42;;;;;;;14.13;2.47;;;14.50;1.00;;;;;;4396682;28;657279;-68
2021/09/24 12:14:32;;;;;;;10.70;2.90;;;14.70;1.00;;;;;;4387403;28;658099;-68
2021/09/24 12:17:22;;;;;;;7.57;2.33;;;14.90;1.00;;;;;;4394209;28;657153;-67
2021/09/24 12:20:11;;;;;;;10.23;2.25;;;14.80;1.00;;;;;;4395620;28;655533;-69
2021/09/24 12:22:59;;;;;;;12.17;2.87;;;14.70;1.00;;;;;;4389846;28;656831;-67
2021/09/24 12:25:56;;;;;;;10.67;2.27;;;14.60;1.00;;;;;;4405303;28;656861;-68
2021/09/24 12:28:58;;;;;;;7.10;2.80;;;14.60;1.00;;;;;;4364244;28;656845;-69
2021/09/24 12:31:47;;;;;;;12.97;2.70;;;14.60;1.00;;;;;;4391090;28;655959;-68
2021/09/24 12:34:41;;;;;;;16.37;3.27;;;14.80;1.00;;;;;;4393404;28;656402;-68
2021/09/24 12:37:35;;;;;;;8.23;2.63;;;14.80;1.00;;;;;;4392245;28;656674;-68
2021/09/24 12:40:22;;;;;;;13.73;2.90;;;14.80;1.00;;;;;;4390070;28;656266;-68
2021/09/24 12:43:10;;;;;;;9.23;2.70;;;14.80;1.00;;;;;;4392048;28;658830;-68
2021/09/24 12:45:58;;;;;;;5.60;2.50;;;14.80;1.00;;;;;;4398803;28;656178;-68
2021/09/24 12:48:46;;;;;;;6.43;2.10;;;14.70;1.00;;;;;;4412127;28;656913;-67
2021/09/24 12:51:34;;;;;;;11.63;2.10;;;14.60;1.00;;;;;;4398167;28;655682;-68
2021/09/24 12:54:24;;;;;;;8.60;2.80;;;14.70;1.00;;;;;;4415239;28;656541;-68
2021/09/24 12:57:16;;;;;;;11.02;2.70;;;14.70;1.00;;;;;;4393967;28;655489;-68
2021/09/24 13:00:06;;;;;;;8.30;2.73;;;14.80;1.00;;;;;;4374194;28;657090;-68
2021/09/24 13:02:54;;;;;;;11.37;3.00;;;15.00;1.00;;;;;;4389904;28;656218;-69
2021/09/24 13:05:41;;;;;;;6.83;2.20;;;15.10;1.00;;;;;;4414590;28;656103;-68
2021/09/24 13:08:30;;;;;;;15.30;2.90;;;14.90;1.00;;;;;;4395433;28;655370;-68
2021/09/24 13:11:23;;;;;;;9.77;2.17;;;15.10;1.00;;;;;;4414664;28;656822;-68
2021/09/24 13:14:11;;;;;;;12.40;2.67;;;15.40;99.90;;;;;;4392832;28;655613;-69
2021/09/24 13:16:59;;;;;;;12.50;2.83;;;15.30;1.00;;;;;;4391534;28;657531;-68
2021/09/24 13:19:46;;;;;;;12.70;2.90;;;15.40;99.90;;;;;;4409743;28;657686;-68
2021/09/24 13:22:34;;;;;;;8.32;2.40;;;15.80;99.90;;;;;;4394679;28;657542;-68
2021/09/24 13:25:22;;;;;;;17.97;2.90;;;15.80;99.90;;;;;;4414085;28;656560;-69
2021/09/24 13:28:11;;;;;;;14.60;2.43;;;15.70;99.90;;;;;;4389437;28;658007;-69
2021/09/24 13:30:59;;;;;;;11.77;2.50;;;15.70;99.90;;;;;;4395867;28;657636;-69
2021/09/24 13:33:46;;;;;;;19.07;3.60;;;15.50;99.90;;;;;;4408863;28;657984;-68
2021/09/24 13:36:34;;;;;;;12.25;2.60;;;15.20;32.00;;;;;;4394781;28;657567;-69
2021/09/24 13:39:21;;;;;;;13.03;2.57;;;15.00;99.90;;;;;;4413759;28;657823;-68
2021/09/24 13:42:09;;;;;;;11.80;2.50;;;15.30;99.90;;;;;;4392234;28;658182;-68
2021/09/24 13:44:58;;;;;;;15.20;2.33;;;15.50;99.90;;;;;;4405648;28;657492;-68
2021/09/24 13:47:46;;;;;;;17.63;2.57;;;15.70;90.10;;;;;;4390615;28;657946;-68
2021/09/24 13:50:33;;;;;;;11.37;2.30;;;15.60;1.10;;;;;;4394567;28;657982;-68
2021/09/24 13:53:21;;;;;;;8.47;2.37;;;15.80;17.90;;;;;;4414397;28;657484;-68
2021/09/24 13:56:08;;;;;;;13.47;2.50;;;16.00;1.00;;;;;;4395828;28;656815;-68
2021/09/24 13:58:56;;;;;;;15.67;2.47;;;16.20;1.00;;;;;;4410396;28;657622;-68
2021/09/24 14:01:45;;;;;;;11.80;2.43;;;16.00;1.00;;;;;;4393615;28;656412;-69
2021/09/24 14:04:33;;;;;;;9.87;2.33;;;16.00;1.00;;;;;;4405435;28;657268;-68
2021/09/24 14:07:20;;;;;;;12.50;2.23;;;16.00;1.00;;;;;;4414795;28;655684;-68
2021/09/24 14:10:09;;;;;;;7.90;1.63;;;15.80;1.00;;;;;;4395462;28;656631;-68
2021/09/24 14:12:57;;;;;;;10.07;2.20;;;15.90;99.90;;;;;;4405226;28;656237;-68
2021/09/24 14:15:45;;;;;;;13.27;2.50;;;16.20;99.90;;;;;;4378487;28;658512;-68
2021/09/24 14:18:34;;;;;;;11.47;2.37;;;16.80;99.90;;;;;;4411191;28;657223;-68
2021/09/24 14:21:22;;;;;;;7.50;2.50;;;17.30;1.00;;;;;;4413274;28;658140;-68
2021/09/24 14:24:09;;;;;;;11.67;2.23;;;18.10;93.10;;;;;;4393391;28;656324;-69
2021/09/24 14:26:57;;;;;;;7.20;1.87;;;18.10;99.90;;;;;;4409803;28;657552;-69
2021/09/24 14:29:45;;;;;;;12.87;2.40;;;18.10;1.00;;;;;;4384492;28;656593;-68
2021/09/24 14:32:33;;;;;;;11.55;2.50;;;18.40;1.00;;;;;;4398606;28;656527;-67